Flight Track Log - Related Links

Times and Time Zones

All times are in EDT time to prevent confusion due to time zone crossing. See the CRQ922 flight status page for this flight to view local times or setup timezone preferences in your user account.

Time Position Orientation Groundspeed Altitude Reporting Facility
EDT Latitude Longitude Course Direction KTS MPH feet Rate Location/Type
Mon 01:37:48 PM 55.2333 -77.8833 189° South 200 230 6,300  Level Montreal Center
Mon 01:38:48 PM 55.1833 -77.9000 191° South 180 207 7,500 1,240 Climbing Montreal Center
Mon 01:39:49 PM 55.1500 -77.9667 229° Southwest 180 207 8,800 1,140 Climbing Montreal Center
Mon 01:40:00 PM 54.8279 -77.8871 189° South  Level Estimated
Mon 01:40:49 PM 55.0833 -78.0000 196° South 190 219 9,800  Level Montreal Center
Mon 01:41:00 PM 54.7631 -77.9053 189° South  Level Estimated
Mon 01:41:49 PM 55.0333 -78.0167 191° South 190 219 10,800  Level Montreal Center
Mon 01:42:00 PM 54.6982 -77.9234 189° South  Level Estimated
Mon 01:42:49 PM 54.9833 -78.0500 201° Southwest 190 219 11,800  Level Montreal Center
Mon 01:43:00 PM 54.6334 -77.9415 189° South  Level Estimated
Mon 01:43:49 PM 54.9333 -78.1000 210° Southwest 210 242 11,900  Level Montreal Center
Mon 01:44:49 PM 54.8667 -78.1500 203° Southwest 230 265 12,000 50 Climbing Montreal Center
Mon 01:45:49 PM 54.8167 -78.1833 201° Southwest 240 276 12,000  Level Montreal Center
Mon 01:46:49 PM 54.7500 -78.2333 203° Southwest 250 288 12,000  Level Montreal Center
Mon 01:47:49 PM 54.6833 -78.3000 210° Southwest 250 288 12,000  Level Montreal Center
Mon 01:48:49 PM 54.6167 -78.3500 203° Southwest 250 288 12,000  Level Montreal Center
Mon 01:49:49 PM 54.5667 -78.4000 210° Southwest 240 276 12,000  Level Montreal Center
Mon 01:50:49 PM 54.5000 -78.4500 204° Southwest 240 276 12,000  Level Montreal Center
Mon 01:51:49 PM 54.4500 -78.5167 218° Southwest 240 276 12,000  Level Montreal Center
Mon 01:52:49 PM 54.3833 -78.5667 204° Southwest 240 276 12,000 -300 Level Montreal Center
Mon 01:53:49 PM 54.3167 -78.6167 204° Southwest 240 276 11,400 -1,000 Descending Montreal Center
Mon 01:54:49 PM 54.2500 -78.6667 204° Southwest 260 299 10,000 -1,450 Descending Montreal Center
Mon 01:55:49 PM 54.1833 -78.7500 216° Southwest 260 299 8,500 -1,500 Descending Montreal Center
Mon 01:56:49 PM 54.1333 -78.8000 210° Southwest 260 299 7,000 -1,500 Descending Montreal Center
Mon 01:57:49 PM 54.0667 -78.8667 210° Southwest 250 288 5,500 -1,450 Descending Montreal Center
Mon 01:58:49 PM 54.0167 -78.9167 210° Southwest 240 276 4,100 -1,250 Descending Montreal Center
Mon 01:59:49 PM 53.9500 -78.9667 204° Southwest 240 276 3,000 -950 Descending Montreal Center
Mon 02:00:49 PM 53.9000 -79.0167 211° Southwest 200 230 2,200 -850 Descending Montreal Center
Mon 02:01:49 PM 53.8500 -79.0500 201° Southwest 170 196 1,300 -600 Descending Montreal Center
Mon 02:02:49 PM 53.8500 -78.9833 90° East 140 161 1,000 -450 Descending Montreal Center
Mon 02:03:49 PM 53.8333 -78.9667 149° Southeast 110 127 400 -600 Descending Montreal Center
Mon 02:06:00 PM 53.7584 -78.9582 176° South  Level FlightAware Approximate
Mon 02:13:00 PM 53.3151 -78.9084 176° South  Level FlightAware Approximate
Mon 02:14:00 PM 53.2518 -78.9014 176° South  Level FlightAware Approximate
Mon 02:15:00 PM 53.1885 -78.8944 176° South  Level FlightAware Approximate
Mon 02:16:00 PM 53.1251 -78.8874 176° South  Level FlightAware Approximate
Mon 02:17:00 PM 53.0618 -78.8804 176° South  Level FlightAware Approximate
Mon 02:18:00 PM 52.9985 -78.8735 176° South  Level FlightAware Approximate
Mon 02:19:00 PM 52.9351 -78.8666 176° South  Level FlightAware Approximate
Mon 02:20:00 PM 52.8718 -78.8597 176° South  Level FlightAware Approximate
Mon 02:21:00 PM 52.8085 -78.8528 176° South  Level FlightAware Approximate
Mon 02:22:00 PM 52.7452 -78.8459 176° South  Level FlightAware Approximate
Mon 02:23:00 PM 52.6818 -78.8391 176° South  Level FlightAware Approximate
Mon 02:24:00 PM 52.6185 -78.8323 176° South  Level FlightAware Approximate
Mon 02:25:00 PM 52.5552 -78.8255 176° South  Level FlightAware Approximate
Mon 02:26:00 PM 52.4918 -78.8187 176° South  Level FlightAware Approximate
Mon 02:27:00 PM 52.4285 -78.8119 176° South  Level FlightAware Approximate
Mon 02:28:00 PM 52.3652 -78.8052 176° South  Level FlightAware Approximate
Mon 02:29:00 PM 52.3018 -78.7984 176° South  Level FlightAware Approximate
Mon 02:30:00 PM 52.2385 -78.7917 176° South  Level FlightAware Approximate
Mon 02:31:00 PM 52.1752 -78.7851 176° South  Level FlightAware Approximate
Mon 02:32:00 PM 52.1118 -78.7784 176° South  Level FlightAware Approximate
Mon 02:33:00 PM 52.0485 -78.7717 176° South  Level FlightAware Approximate
Mon 02:34:00 PM 51.9853 -78.7652 176° South  Level FlightAware Approximate
Mon 02:35:00 PM 51.9219 -78.7588 176° South  Level FlightAware Approximate
Mon 02:36:00 PM 51.8586 -78.7525 176° South  Level FlightAware Approximate
Mon 02:37:00 PM 51.7952 -78.7500 180° South  Level FlightAware Approximate
Mon 02:38:00 PM 51.7317 -78.7500 180° South  Level FlightAware Approximate
Mon 02:39:00 PM 51.6682 -78.7500 180° South  Level FlightAware Approximate
Mon 02:40:00 PM 51.6048 -78.7500 180° South  Level FlightAware Approximate
Mon 02:41:00 PM 51.5413 -78.7500 180° South  Level FlightAware Approximate
Mon 02:42:00 PM 51.4778 -78.7500 180° South  Level FlightAware Approximate
Mon 02:43:00 PM 51.4667 -78.7500 180° South  Level FlightAware Approximate
Mon 02:44:00 PM 51.4736 -78.7581 180° South  Level Estimated
Mon 02:45:00 PM 51.4736 -78.7581 180° South  Level Estimated
Mon 02:46:00 PM 51.4736 -78.7581 180° South  Level Estimated
Mon 02:47:00 PM 51.4736 -78.7581 180° South  Level Estimated
Mon 02:48:00 PM 51.4736 -78.7581 180° South  Level Estimated
Mon 02:49:00 PM 51.4736 -78.7581 180° South  Level Estimated
Mon 02:50:00 PM 51.4736 -78.7581 180° South  Level Estimated
Mon 02:51:00 PM 51.4736 -78.7581 180° South  Level Estimated
Mon 02:52:00 PM 51.4736 -78.7581 180° South  Level Estimated

Login

Don't have an account? Register now (free) for customized features, flight alerts, and more!